Impacts METAR Board
IDs:

KJFK - New York/Kennedy Int, NY, US

Updated at: 1900 UTC 23 Sep 2018
Potential Impact None Slight Moderate High
Time 23/07Z 23/08Z 23/09Z 23/10Z 23/11Z 23/12Z 23/13Z 23/14Z 23/15Z 23/16Z 23/17Z 23/18Z 23/19Z
Temp62 62 62 62 61 61 62 63 64 65 65 66 64
Dewpt54 54 55 56 57 57 57 57 57 57 58 59 61
Altim30.20 30.21 30.22 30.21 30.23 30.23 30.23 30.26 30.26 30.26 30.25 30.23 30.23
VIS10 10 10 10 10 10 10 10 10 10 10 10 4
CIG180 40 40 110 110 120 130 31 31 18 20 22 19
CoverBKNOVCOVCOVCBKNOVCBKNOVCOVCOVCOVCOVCOVC
FltCatVFRVFRVFRVFRVFRVFRVFRVFRVFRMVFRMVFRMVFRMVFR
WX-------RA---RA---RA---------RA BR
WDir3036010203502030105030609040
WSpd6 7 5 7 5 6 7 4 8 7 8 7 3
WGst-- -- -- -- -- -- -- -- -- -- -- -- --
Raw hourly METARs
KJFK 230651Z 03006KT 10SM FEW120 BKN180 BKN250 17/12 A3020 RMK AO2 SLP227 T01670122
KJFK 230751Z 36007KT 10SM BKN040 BKN180 OVC250 17/12 A3021 RMK AO2 SLP231 T01670122
KJFK 230851Z 01005KT 10SM BKN040 BKN110 OVC150 17/13 A3022 RMK AO2 SLP234 T01670128 53003
KJFK 230951Z 02007KT 10SM -RA FEW040 SCT090 BKN110 OVC150 17/13 A3021 RMK AO2 RAB46 SLP231 P0000 T01670133
KJFK 231051Z 35005KT 10SM FEW040 BKN110 BKN140 16/14 A3023 RMK AO2 RAE29 SLP235 P0000 T01610139
KJFK 231151Z 02006KT 10SM -RA FEW026 SCT100 OVC120 16/14 A3023 RMK AO2 RAB45 SLP237 P0000 60000 T01610139 10167 20161 53003
KJFK 231251Z 03007KT 10SM FEW026 SCT035 SCT100 BKN130 OVC160 17/14 A3023 RMK AO2 RAE19 SLP237 P0000 T01670139
KJFK 231351Z 01004KT 10SM -RA FEW024 BKN031 BKN110 OVC160 17/14 A3026 RMK AO2 RAB46 SLP246 P0000 T01720139
KJFK 231451Z 05008KT 10SM FEW024 BKN031 BKN120 OVC160 18/14 A3026 RMK AO2 RAE01 SLP248 P0000 60000 T01780139 53011
KJFK 231551Z 03007KT 10SM BKN018 BKN031 BKN100 OVC150 18/14 A3026 RMK AO2 SLP248 T01830139
KJFK 231651Z 06008KT 10SM BKN020 BKN031 BKN100 OVC150 18/14 A3025 RMK AO2 SLP242 T01830144
KJFK 231751Z 09007KT 10SM BKN022 BKN027 BKN045 OVC160 19/15 A3023 RMK AO2 SLP238 60000 T01890150 10189 20161 58010
KJFK 231851Z 04003KT 4SM -RA BR OVC019 18/16 A3023 RMK AO2 RAB27 SLP237 P0000 T01780161



Page loaded:  19:36 UTC  |   12:36 PM Pacific  |   01:36 PM Mountain  |   02:36 PM Central  |   03:36 PM Eastern

 

ADVISORIES

FORECASTS

FORECASTS

OBSERVATIONS

USER TOOLS

ABOUT US